Time;durP1;ratioP1;P1;durP2;ratioP2;P2;SDS_P1;SDS_P2;PMS_P1;PMS_P2;Temp;Humidity;BMP_temperature;BMP_pressure;BME280_temperature;BME280_humidity;BME280_pressure;Samples;Min_cycle;Max_cycle;Signal;HPM_P1;HPM_P2
2024/02/29 00:00:45;;;;;;;;;;;;;;;5.33;100.00;99984.56;4984346;28;19958;-80
2024/02/29 00:03:10;;;;;;;;;;;;;;;5.31;100.00;99985.47;4985738;28;20335;-83
2024/02/29 00:05:39;;;;;;;;;;;;;;;5.32;100.00;99976.72;4983573;28;19917;-87
2024/02/29 00:08:04;;;;;;;;;;;;;;;5.28;100.00;99983.75;4984614;28;20404;-80
2024/02/29 00:10:30;;;;;;;;;;;;;;;5.31;100.00;99982.84;4984730;28;19914;-84
2024/02/29 00:12:55;;;;;;;;;;;;;;;5.28;100.00;99979.41;4985374;28;19922;-85
2024/02/29 00:15:20;;;;;;;;;;;;;;;5.26;100.00;99978.56;4986052;28;19918;-88
2024/02/29 00:17:45;;;;;;;;;;;;;;;5.27;100.00;99979.44;4985546;28;19958;-83
2024/02/29 00:20:11;;;;;;;;;;;;;;;5.29;100.00;99969.75;4983992;28;19918;-86
2024/02/29 00:22:36;;;;;;;;;;;;;;;5.25;100.00;99966.31;4985325;28;19990;-80
2024/02/29 00:25:02;;;;;;;;;;;;;;;5.26;100.00;99975.94;4985821;28;19922;-86
2024/02/29 00:27:27;;;;;;;;;;;;;;;5.26;100.00;99972.44;4984974;28;19922;-84
2024/02/29 00:29:53;;;;;;;;;;;;;;;5.31;100.00;99982.84;4984652;28;19977;-89
2024/02/29 00:32:18;;;;;;;;;;;;;;;5.28;100.00;99984.66;4986052;28;19918;-83
2024/02/29 00:34:43;;;;;;;;;;;;;;;5.28;100.00;99986.41;4985052;28;19928;-82
2024/02/29 00:37:09;;;;;;;;;;;;;;;5.26;100.00;99980.31;4984036;28;19918;-81
2024/02/29 00:39:34;;;;;;;;;;;;;;;5.28;100.00;99986.41;4985295;28;20004;-90
2024/02/29 00:42:00;;;;;;;;;;;;;;;5.28;100.00;99976.78;4983489;28;19925;-87
2024/02/29 00:44:25;;;;;;;;;;;;;;;5.27;100.00;99977.66;4984617;28;19925;-83
2024/02/29 00:46:50;;;;;;;;;;;;;;;5.26;100.00;99972.44;4984044;28;20325;-88
2024/02/29 00:49:15;;;;;;;;;;;;;;;5.26;100.00;99975.94;4986024;28;19925;-91
2024/02/29 00:51:41;;;;;;;;;;;;;;;5.28;100.00;99976.78;4983053;28;19922;-89
2024/02/29 00:54:06;;;;;;;;;;;;;;;5.23;100.00;99975.09;4984787;28;20385;-88
2024/02/29 09:00:55;;;;;;;;;;;;;;;5.05;100.00;99561.34;5003919;23;19993;-87
2024/02/29 09:03:20;;;;;;;;;;;;;;;5.02;100.00;99558.78;4985442;28;19926;-87
2024/02/29 09:05:46;;;;;;;;;;;;;;;5.03;100.00;99561.38;4984795;28;19977;-86
2024/02/29 09:08:11;;;;;;;;;;;;;;;5.00;100.00;99556.19;4985068;28;19922;-86
2024/02/29 09:10:36;;;;;;;;;;;;;;;5.02;100.00;99558.78;4984717;28;19964;-79
2024/02/29 09:13:04;;;;;;;;;;;;;;;5.05;100.00;99561.34;4984814;28;20353;-81
2024/02/29 09:15:29;;;;;;;;;;;;;;;5.03;100.00;99550.88;4982225;28;20008;-84
2024/02/29 09:17:55;;;;;;;;;;;;;;;5.02;100.00;99540.41;4984409;28;20409;-82
2024/02/29 09:20:20;;;;;;;;;;;;;;;5.04;100.00;99543.84;4985231;28;19919;-82
2024/02/29 09:22:45;;;;;;;;;;;;;;;5.04;100.00;99538.59;4985068;28;19969;-88
2024/02/29 09:25:10;;;;;;;;;;;;;;;5.04;100.00;99533.34;4984676;28;19918;-84
2024/02/29 09:27:35;;;;;;;;;;;;;;;5.04;100.00;99531.59;4984633;28;19922;-79
2024/02/29 09:30:01;;;;;;;;;;;;;;;5.05;100.00;99521.94;4983471;28;19918;-85
2024/02/29 09:32:26;;;;;;;;;;;;;;;5.05;100.00;99521.94;4983223;28;19918;-80
2024/02/29 09:34:52;;;;;;;;;;;;;;;5.06;100.00;99523.69;4982839;28;20369;-82
2024/02/29 09:37:17;;;;;;;;;;;;;;;5.08;100.00;99520.09;4983879;28;20593;-88
2024/02/29 09:39:42;;;;;;;;;;;;;;;5.07;100.00;99514.88;4983246;28;19922;-86
2024/02/29 09:42:09;;;;;;;;;;;;;;;5.08;100.00;99511.38;4983809;28;19920;-82
2024/02/29 09:44:35;;;;;;;;;;;;;;;5.06;100.00;99510.56;4982760;28;19975;-84
2024/02/29 09:47:00;;;;;;;;;;;;;;;5.04;100.00;99504.44;4984389;28;19969;-87
2024/02/29 09:49:28;;;;;;;;;;;;;;;5.05;100.00;99506.19;4983372;28;19914;-86
2024/02/29 09:51:53;;;;;;;;;;;;;;;5.01;100.00;99504.53;4981591;28;20168;-87
2024/02/29 09:54:18;;;;;;;;;;;;;;;5.09;100.00;99507.84;4983045;28;20016;-81
2024/02/29 09:56:44;;;;;;;;;;;;;;;5.11;100.00;99506.03;4984095;28;19969;-84
2024/02/29 09:59:13;;;;;;;;;;;;;;;5.11;100.00;99498.16;4982595;28;20061;-89
2024/02/29 10:01:39;;;;;;;;;;;;;;;5.08;100.00;99496.47;4983652;28;19926;-84
2024/02/29 10:04:04;;;;;;;;;;;;;;;5.08;100.00;99500.88;4983459;28;19922;-87
2024/02/29 10:06:29;;;;;;;;;;;;;;;5.06;100.00;99498.28;4981662;28;19918;-86
2024/02/29 10:08:55;;;;;;;;;;;;;;;5.10;100.00;99496.44;4983306;28;19928;-79
2024/02/29 10:11:21;;;;;;;;;;;;;;;5.13;100.00;99491.09;4983393;28;20305;-88
2024/02/29 10:13:47;;;;;;;;;;;;;;;5.12;100.00;99492.00;4982384;28;19948;-81
2024/02/29 10:16:12;;;;;;;;;;;;;;;5.09;100.00;99486.84;4982099;28;19941;-84
2024/02/29 10:18:38;;;;;;;;;;;;;;;5.08;100.00;99485.09;4982051;28;19918;-82
2024/02/29 10:21:10;;;;;;;;;;;;;;;5.08;100.00;99477.22;4983230;28;19945;-85
2024/02/29 10:23:35;;;;;;;;;;;;;;;5.12;100.00;99475.38;4983681;28;19918;-87
2024/02/29 10:26:01;;;;;;;;;;;;;;;5.14;100.00;99474.44;4982980;28;19929;-83
2024/02/29 10:28:28;;;;;;;;;;;;;;;5.13;100.00;99471.84;4983877;28;19932;-82
2024/02/29 10:30:54;;;;;;;;;;;;;;;5.14;100.00;99460.44;4982987;28;19917;-83
2024/02/29 10:33:20;;;;;;;;;;;;;;;5.09;100.00;99464.06;4983272;28;20439;-83
2024/02/29 10:35:46;;;;;;;;;;;;;;;5.12;100.00;99468.34;4982177;28;19922;-80
2024/02/29 10:38:11;;;;;;;;;;;;;;;5.11;100.00;99461.38;4982779;28;19918;-83
2024/02/29 10:40:36;;;;;;;;;;;;;;;5.16;100.00;99456.88;4982556;28;20373;-83
2024/02/29 10:43:02;;;;;;;;;;;;;;;5.18;100.00;99459.47;4983150;28;19917;-84
2024/02/29 10:45:27;;;;;;;;;;;;;;;5.16;100.00;99456.88;4982143;28;19922;-82
2024/02/29 10:47:59;;;;;;;;;;;;;;;5.20;100.00;99450.66;4982845;28;19918;-81
2024/02/29 10:50:28;;;;;;;;;;;;;;;5.17;100.00;99445.47;4982744;28;19937;-81
2024/02/29 10:53:03;;;;;;;;;;;;;;;5.14;100.00;99439.41;4982898;28;20052;-83
2024/02/29 10:55:30;;;;;;;;;;;;;;;5.13;100.00;99435.09;4982326;28;19922;-90
2024/02/29 10:58:02;;;;;;;;;;;;;;;5.15;100.00;99431.50;4983223;28;19922;-83
2024/02/29 11:00:27;;;;;;;;;;;;;;;5.16;100.00;99425.34;4980392;28;19918;-88
2024/02/29 11:02:53;;;;;;;;;;;;;;;5.18;100.00;99425.31;4982478;28;19922;-82
2024/02/29 11:05:19;;;;;;;;;;;;;;;5.19;100.00;99414.78;4983212;28;19925;-85
2024/02/29 11:07:44;;;;;;;;;;;;;;;5.18;100.00;99406.94;4983684;28;19926;-83
2024/02/29 11:10:10;;;;;;;;;;;;;;;5.17;100.00;99395.56;4982597;28;19922;-85
2024/02/29 11:12:44;;;;;;;;;;;;;;;5.15;100.00;99399.13;4983208;28;20012;-84
2024/02/29 11:15:12;;;;;;;;;;;;;;;5.22;100.00;99398.06;4977563;28;20369;-86
2024/02/29 11:17:39;;;;;;;;;;;;;;;5.18;100.00;99392.03;4982383;28;20005;-87
2024/02/29 11:20:09;;;;;;;;;;;;;;;5.17;100.00;99386.81;4983050;28;20008;-84
2024/02/29 11:22:34;;;;;;;;;;;;;;;5.19;100.00;99375.38;4982826;28;20266;-82
2024/02/29 11:25:07;;;;;;;;;;;;;;;5.18;100.00;99371.00;4982218;28;19925;-82
2024/02/29 11:27:33;;;;;;;;;;;;;;;5.16;100.00;99367.56;4981130;28;19922;-84
2024/02/29 11:30:00;;;;;;;;;;;;;;;5.18;100.00;99357.88;4982971;28;19918;-89
2024/02/29 11:32:26;;;;;;;;;;;;;;;5.15;100.00;99350.06;4986476;28;19965;-82
2024/02/29 11:34:51;;;;;;;;;;;;;;;5.17;100.00;99347.41;4986433;28;19918;-85
2024/02/29 11:37:18;;;;;;;;;;;;;;;5.17;100.00;99332.53;4988061;28;20285;-84
2024/02/29 11:39:44;;;;;;;;;;;;;;;5.15;100.00;99326.44;4988617;28;20336;-91
2024/02/29 11:42:09;;;;;;;;;;;;;;;5.18;100.00;99318.47;4989301;28;19918;-88
2024/02/29 11:44:34;;;;;;;;;;;;;;;5.20;100.00;99321.94;4985284;28;19944;-81
2024/02/29 11:47:00;;;;;;;;;;;;;;;5.22;100.00;99314.88;4986810;28;19972;-82
2024/02/29 11:49:26;;;;;;;;;;;;;;;5.20;100.00;99316.69;4986130;28;20025;-79
2024/02/29 11:51:52;;;;;;;;;;;;;;;5.17;100.00;99311.53;4986375;28;20361;-82
2024/02/29 11:54:18;;;;;;;;;;;;;;;5.20;100.00;99306.19;4985973;28;20400;-83
2024/02/29 11:56:43;;;;;;;;;;;;;;;5.18;100.00;99296.63;4985723;28;20443;-83
2024/02/29 11:59:15;;;;;;;;;;;;;;;5.18;100.00;99286.97;4984754;28;19922;-82
2024/02/29 12:01:41;;;;;;;;;;;;;;;5.16;100.00;99280.91;4985703;28;19929;-85
2024/02/29 12:04:06;;;;;;;;;;;;;;;5.16;100.00;99280.03;4985801;28;19925;-88
2024/02/29 12:06:39;;;;;;;;;;;;;;;5.13;100.00;99270.47;4986162;28;19928;-87
2024/02/29 12:09:06;;;;;;;;;;;;;;;5.19;100.00;99267.69;4984432;28;20013;-81
2024/02/29 12:11:32;;;;;;;;;;;;;;;5.16;100.00;99254.63;4986119;28;20361;-79
2024/02/29 12:13:57;;;;;;;;;;;;;;;5.14;100.00;99253.81;4985082;28;19928;-83
2024/02/29 12:16:23;;;;;;;;;;;;;;;5.22;100.00;99240.47;4983995;28;19918;-86
2024/02/29 12:18:50;;;;;;;;;;;;;;;5.18;100.00;99239.69;4985360;28;19922;-85
2024/02/29 12:21:15;;;;;;;;;;;;;;;5.17;100.00;99235.34;4986101;28;20267;-82
2024/02/29 12:23:41;;;;;;;;;;;;;;;5.20;100.00;99232.63;4987305;28;20017;-83
2024/02/29 12:26:06;;;;;;;;;;;;;;;5.21;100.00;99229.09;4986133;28;19935;-88
2024/02/29 12:28:31;;;;;;;;;;;;;;;5.23;100.00;99222.03;4983132;28;19922;-83
2024/02/29 12:30:57;;;;;;;;;;;;;;;5.26;100.00;99210.56;4986136;28;20021;-83
2024/02/29 12:33:23;;;;;;;;;;;;;;;5.18;100.00;99208.16;4984821;28;19946;-87
2024/02/29 12:35:49;;;;;;;;;;;;;;;5.23;100.00;99206.28;4985251;28;19926;-84
2024/02/29 12:38:14;;;;;;;;;;;;;;;5.22;100.00;99209.81;4982852;28;19926;-86
2024/02/29 12:40:40;;;;;;;;;;;;;;;5.26;100.00;99195.69;4984548;28;19918;-91
2024/02/29 12:43:05;;;;;;;;;;;;;;;5.21;100.00;99196.72;4992713;28;19924;-88
2024/02/29 12:45:31;;;;;;;;;;;;;;;5.27;100.00;99189.50;4984679;28;20065;-89
2024/02/29 12:47:56;;;;;;;;;;;;;;;5.25;100.00;99186.06;4984934;28;19982;-85
2024/02/29 12:50:22;;;;;;;;;;;;;;;5.27;100.00;99173.75;4986968;28;19918;-87
2024/02/29 12:52:53;;;;;;;;;;;;;;;5.28;100.00;99172.84;4984901;28;20432;-90
2024/02/29 12:55:19;;;;;;;;;;;;;;;5.23;100.00;99160.75;4985000;28;19921;-92
2024/02/29 12:57:45;;;;;;;;;;;;;;;5.27;100.00;99157.13;4985165;28;20008;-90
2024/02/29 13:00:17;;;;;;;;;;;;;;;5.24;100.00;99155.44;4983689;28;19944;-84
2024/02/29 13:02:42;;;;;;;;;;;;;;;5.27;100.00;99144.84;4984551;28;19929;-85
2024/02/29 13:05:08;;;;;;;;;;;;;;;5.23;100.00;99134.47;4985710;28;19941;-93
2024/02/29 13:07:33;;;;;;;;;;;;;;;5.24;100.00;99126.53;4985678;28;19925;-89
2024/02/29 13:09:59;;;;;;;;;;;;;;;5.24;100.00;99134.44;4984412;28;20410;-89
2024/02/29 13:12:24;;;;;;;;;;;;;;;5.23;100.00;99130.09;4984941;28;20274;-89
2024/02/29 13:14:49;;;;;;;;;;;;;;;5.25;100.00;99125.66;4984286;28;19928;-86
2024/02/29 13:17:15;;;;;;;;;;;;;;;5.25;100.00;99120.41;4984736;28;19953;-88
2024/02/29 13:19:40;;;;;;;;;;;;;;;5.26;100.00;99106.38;4984621;28;19972;-83
2024/02/29 13:22:05;;;;;;;;;;;;;;;5.23;100.00;99101.22;4984637;28;19972;-82
2024/02/29 13:24:30;;;;;;;;;;;;;;;5.32;100.00;99097.41;4985798;28;19918;-85
2024/02/29 13:26:56;;;;;;;;;;;;;;;5.32;100.00;99086.06;4983852;28;19921;-89
2024/02/29 13:29:21;;;;;;;;;;;;;;;5.33;100.00;99074.63;4983543;28;19922;-87
2024/02/29 13:31:46;;;;;;;;;;;;;;;5.33;100.00;99074.63;4984405;28;20381;-87
2024/02/29 13:34:11;;;;;;;;;;;;;;;5.31;100.00;99071.19;4984466;28;19918;-84
2024/02/29 13:36:37;;;;;;;;;;;;;;;5.31;100.00;99056.28;4986161;28;19972;-83
2024/02/29 13:39:02;;;;;;;;;;;;;;;5.33;100.00;99058.84;4984193;28;19924;-82
2024/02/29 13:41:28;;;;;;;;;;;;;;;5.35;100.00;99046.56;4983858;28;20004;-89
2024/02/29 13:43:53;;;;;;;;;;;;;;;5.31;100.00;99051.03;4983765;28;20510;-86
2024/02/29 13:46:18;;;;;;;;;;;;;;;5.35;100.00;99036.03;4982829;28;20399;-86
2024/02/29 13:48:46;;;;;;;;;;;;;;;5.43;100.00;99034.84;4984059;28;20222;-83
2024/02/29 13:51:11;;;;;;;;;;;;;;;5.44;100.00;99033.09;4983955;28;19922;-89
2024/02/29 13:53:37;;;;;;;;;;;;;;;5.42;100.00;99029.66;4983906;28;20328;-92
2024/02/29 13:56:03;;;;;;;;;;;;;;;5.36;100.00;99017.59;4986435;28;20012;-90
2024/02/29 13:58:28;;;;;;;;;;;;;;;5.41;100.00;99020.94;4983966;28;19957;-85
2024/02/29 14:00:53;;;;;;;;;;;;;;;5.39;100.00;99016.63;4982620;28;19964;-80
2024/02/29 14:03:18;;;;;;;;;;;;;;;5.40;100.00;99007.84;4984132;28;19922;-81
2024/02/29 14:05:44;;;;;;;;;;;;;;;5.34;100.00;99000.16;4984430;28;19918;-81
2024/02/29 14:08:09;;;;;;;;;;;;;;;5.39;100.00;99000.84;4984157;28;19925;-82
2024/02/29 14:10:34;;;;;;;;;;;;;;;5.36;100.00;98991.31;4983997;28;19918;-91
2024/02/29 14:13:00;;;;;;;;;;;;;;;5.37;100.00;98981.66;4987452;28;19918;-82
2024/02/29 14:15:25;;;;;;;;;;;;;;;5.37;100.00;98981.66;4983455;28;19918;-82
2024/02/29 14:17:50;;;;;;;;;;;;;;;5.41;100.00;98972.78;4983673;28;19948;-87
2024/02/29 14:20:16;;;;;;;;;;;;;;;5.44;100.00;98970.91;4982842;28;20373;-86
2024/02/29 14:22:41;;;;;;;;;;;;;;;5.42;100.00;98970.06;4983070;28;20362;-84
2024/02/29 14:25:06;;;;;;;;;;;;;;;5.48;100.00;98957.66;4983729;28;20505;-83
2024/02/29 14:27:34;;;;;;;;;;;;;;;5.44;100.00;98951.63;4983151;28;19993;-82
2024/02/29 14:29:59;;;;;;;;;;;;;;;5.43;100.00;98950.78;4981938;28;19924;-92
2024/02/29 14:32:24;;;;;;;;;;;;;;;5.43;100.00;98942.06;4983705;28;19922;-82
2024/02/29 14:34:49;;;;;;;;;;;;;;;5.48;100.00;98948.00;4983824;28;19926;-88
2024/02/29 14:37:15;;;;;;;;;;;;;;;5.44;100.00;98931.50;4983272;28;19926;-84
2024/02/29 14:39:43;;;;;;;;;;;;;;;5.51;100.00;98936.53;4986233;28;20377;-84
2024/02/29 14:42:09;;;;;;;;;;;;;;;5.54;100.00;98934.63;4984903;28;19944;-90
2024/02/29 14:44:35;;;;;;;;;;;;;;;5.50;100.00;98925.13;4982166;28;20325;-83
2024/02/29 14:47:00;;;;;;;;;;;;;;;5.55;100.00;98920.59;4985889;28;20353;-85
2024/02/29 14:49:25;;;;;;;;;;;;;;;5.54;100.00;98912.78;4985654;28;19925;-84
2024/02/29 14:51:53;;;;;;;;;;;;;;;5.49;100.00;98910.31;4983155;28;20016;-90
2024/02/29 14:54:18;;;;;;;;;;;;;;;5.53;100.00;98909.25;4982706;28;20001;-82
2024/02/29 14:56:45;;;;;;;;;;;;;;;5.51;100.00;98910.25;4983127;28;20001;-89
2024/02/29 14:59:11;;;;;;;;;;;;;;;5.52;100.00;98902.31;4982205;28;20005;-84
2024/02/29 15:01:36;;;;;;;;;;;;;;;5.51;100.00;98900.59;4986176;28;19953;-82
2024/02/29 15:04:01;;;;;;;;;;;;;;;5.51;100.00;98900.59;4986332;28;20377;-91
2024/02/29 15:06:26;;;;;;;;;;;;;;;5.51;100.00;98895.34;4987718;28;20012;-85
2024/02/29 15:08:52;;;;;;;;;;;;;;;5.50;100.00;98892.75;4989658;28;20564;-89
2024/02/29 15:11:18;;;;;;;;;;;;;;;5.49;100.00;98893.66;4988074;28;19926;-91
2024/02/29 15:13:44;;;;;;;;;;;;;;;5.50;100.00;98887.50;4986498;28;19926;-89
2024/02/29 15:16:09;;;;;;;;;;;;;;;5.54;100.00;98884.72;4988723;28;19943;-87
2024/02/29 15:18:35;;;;;;;;;;;;;;;5.54;100.00;98879.47;4987642;28;20005;-87
2024/02/29 15:21:00;;;;;;;;;;;;;;;5.53;100.00;98880.34;4987756;28;19957;-88
2024/02/29 15:23:25;;;;;;;;;;;;;;;5.57;100.00;98875.88;4986722;28;20289;-87
2024/02/29 15:25:51;;;;;;;;;;;;;;;5.54;100.00;98874.19;4987109;28;19949;-93
2024/02/29 15:28:16;;;;;;;;;;;;;;;5.52;100.00;98870.78;4985369;28;19925;-82
2024/02/29 15:30:42;;;;;;;;;;;;;;;5.56;100.00;98866.25;4989913;28;19921;-87
2024/02/29 15:33:07;;;;;;;;;;;;;;;5.57;100.00;98862.72;4985348;28;19953;-88
2024/02/29 15:35:32;;;;;;;;;;;;;;;5.50;100.00;98862.06;4986646;28;19921;-90
2024/02/29 15:37:58;;;;;;;;;;;;;;;5.57;100.00;98860.94;4986076;28;20040;-82
2024/02/29 15:40:23;;;;;;;;;;;;;;;5.59;100.00;98861.75;4987108;28;20009;-92
2024/02/29 15:42:49;;;;;;;;;;;;;;;5.52;100.00;98862.91;4985998;28;19937;-85
2024/02/29 15:45:14;;;;;;;;;;;;;;;5.58;100.00;98856.53;4984834;28;20070;-80
2024/02/29 15:47:39;;;;;;;;;;;;;;;5.60;100.00;98846.81;4986713;28;20345;-92
2024/02/29 15:50:07;;;;;;;;;;;;;;;5.61;100.00;98848.53;4986098;28;20302;-80
2024/02/29 15:52:33;;;;;;;;;;;;;;;5.59;100.00;98838.09;4986072;28;19941;-84
2024/02/29 15:54:58;;;;;;;;;;;;;;;5.60;100.00;98839.81;4987031;28;20461;-80
2024/02/29 15:57:25;;;;;;;;;;;;;;;5.59;100.00;98829.34;4986089;28;19918;-88
2024/02/29 15:59:50;;;;;;;;;;;;;;;5.54;100.00;98821.66;4984130;28;20289;-87
2024/02/29 16:02:15;;;;;;;;;;;;;;;5.57;100.00;98829.41;4987303;28;19921;-89
2024/02/29 16:04:41;;;;;;;;;;;;;;;5.61;100.00;98820.47;4986660;28;20373;-84
2024/02/29 16:07:06;;;;;;;;;;;;;;;5.60;100.00;98824.03;4986151;28;20028;-79
2024/02/29 16:09:32;;;;;;;;;;;;;;;5.56;100.00;98825.06;4984797;28;19922;-85
2024/02/29 16:11:57;;;;;;;;;;;;;;;5.54;100.00;98821.66;4985917;28;19980;-83
2024/02/29 16:14:23;;;;;;;;;;;;;;;5.60;100.00;98821.41;4982873;28;19930;-88
2024/02/29 16:16:48;;;;;;;;;;;;;;;5.57;100.00;98826.78;4986102;28;19914;-80
2024/02/29 16:19:15;;;;;;;;;;;;;;;5.62;100.00;98824.84;4985724;28;19921;-88
2024/02/29 16:21:40;;;;;;;;;;;;;;;5.62;100.00;98816.94;4984076;28;20352;-86
2024/02/29 16:24:06;;;;;;;;;;;;;;;5.61;100.00;98820.47;4983978;28;19957;-83
2024/02/29 16:26:31;;;;;;;;;;;;;;;5.61;100.00;98820.47;4986306;28;20008;-83
2024/02/29 16:28:56;;;;;;;;;;;;;;;5.61;100.00;98814.38;4983665;28;19928;-82
2024/02/29 16:31:21;;;;;;;;;;;;;;;5.56;100.00;98806.66;4985867;28;19957;-85
2024/02/29 16:33:47;;;;;;;;;;;;;;;5.58;100.00;98812.72;4985783;28;20385;-88
2024/02/29 16:36:13;;;;;;;;;;;;;;;5.63;100.00;98815.16;4984482;28;19922;-84
2024/02/29 16:38:40;;;;;;;;;;;;;;;5.60;100.00;98810.91;4986359;28;19961;-86
2024/02/29 16:41:05;;;;;;;;;;;;;;;5.55;100.00;98812.84;4984337;28;19933;-85
2024/02/29 16:43:30;;;;;;;;;;;;;;;5.60;100.00;98815.28;4985603;28;20281;-83
2024/02/29 16:45:56;;;;;;;;;;;;;;;5.62;100.00;98810.84;4981572;28;19996;-84
2024/02/29 16:48:21;;;;;;;;;;;;;;;5.56;100.00;98816.31;4986451;28;19964;-87
2024/02/29 16:50:46;;;;;;;;;;;;;;;5.60;100.00;98805.66;4985197;28;19969;-82
2024/02/29 16:53:11;;;;;;;;;;;;;;;5.59;100.00;98806.56;4984158;28;19918;-81
2024/02/29 16:55:37;;;;;;;;;;;;;;;5.57;100.00;98804.91;4984479;28;20340;-83
2024/02/29 16:58:02;;;;;;;;;;;;;;;5.64;100.00;98794.09;4985405;28;19919;-83
2024/02/29 17:00:28;;;;;;;;;;;;;;;5.58;100.00;98796.09;4985133;28;19941;-84
2024/02/29 17:02:53;;;;;;;;;;;;;;;5.61;100.00;98796.81;4985308;28;19921;-88
2024/02/29 17:05:19;;;;;;;;;;;;;;;5.57;100.00;98784.75;4987527;28;19925;-88
2024/02/29 17:07:44;;;;;;;;;;;;;;;5.61;100.00;98788.94;4984015;28;19919;-84
2024/02/29 17:10:10;;;;;;;;;;;;;;;5.56;100.00;98792.69;4984389;28;19964;-81
2024/02/29 17:12:36;;;;;;;;;;;;;;;5.55;100.00;98785.69;4982852;28;19922;-83
2024/02/29 17:15:01;;;;;;;;;;;;;;;5.52;100.00;98791.94;4982521;28;19996;-82
2024/02/29 17:17:28;;;;;;;;;;;;;;;5.52;100.00;98785.81;4983875;28;19922;-87
2024/02/29 17:19:54;;;;;;;;;;;;;;;5.53;100.00;98787.53;4983049;28;19989;-81
2024/02/29 17:22:19;;;;;;;;;;;;;;;5.55;100.00;98780.44;4984422;28;19922;-83
2024/02/29 17:24:45;;;;;;;;;;;;;;;5.58;100.00;98785.59;4984190;28;19940;-84
2024/02/29 17:27:10;;;;;;;;;;;;;;;5.59;100.00;98780.28;4984211;28;19922;-83
2024/02/29 17:29:37;;;;;;;;;;;;;;;5.57;100.00;98771.59;4981675;28;19980;-83
2024/02/29 17:32:02;;;;;;;;;;;;;;;5.56;100.00;98780.38;4984326;28;20365;-81
2024/02/29 17:34:27;;;;;;;;;;;;;;;5.56;100.00;98771.66;4984546;28;19922;-80
2024/02/29 17:36:53;;;;;;;;;;;;;;;5.58;100.00;98770.66;4983344;28;19918;-81
2024/02/29 17:39:18;;;;;;;;;;;;;;;5.57;100.00;98773.38;4983120;28;19971;-79
2024/02/29 17:41:45;;;;;;;;;;;;;;;5.57;100.00;98774.22;4982722;28;20299;-82
2024/02/29 17:44:11;;;;;;;;;;;;;;;5.62;100.00;98768.78;4983105;28;19928;-84
2024/02/29 17:46:36;;;;;;;;;;;;;;;5.56;100.00;98767.25;4983637;28;19940;-82
2024/02/29 17:49:02;;;;;;;;;;;;;;;5.60;100.00;98760.09;4981847;28;20464;-87
2024/02/29 17:51:27;;;;;;;;;;;;;;;5.60;100.00;98760.09;4997473;28;19921;-88
2024/02/29 17:53:53;;;;;;;;;;;;;;;5.58;100.00;98759.31;4982993;28;19926;-81
2024/02/29 17:56:19;;;;;;;;;;;;;;;5.57;100.00;98758.47;4982934;28;19956;-83
2024/02/29 17:58:44;;;;;;;;;;;;;;;5.57;100.00;98760.25;4981381;28;20370;-83
2024/02/29 18:01:10;;;;;;;;;;;;;;;5.56;100.00;98764.63;4982989;28;19922;-82
2024/02/29 18:03:35;;;;;;;;;;;;;;;5.53;100.00;98759.47;4982188;28;20381;-81
2024/02/29 18:06:00;;;;;;;;;;;;;;;5.56;100.00;98761.16;4980962;28;19930;-84
2024/02/29 18:08:26;;;;;;;;;;;;;;;5.53;100.00;98767.38;4984752;28;19922;-78
2024/02/29 18:10:51;;;;;;;;;;;;;;;5.51;100.00;98766.56;4983332;28;20309;-83
2024/02/29 18:13:16;;;;;;;;;;;;;;;5.48;100.00;98764.06;4984147;28;19957;-81
2024/02/29 18:15:41;;;;;;;;;;;;;;;5.56;100.00;98761.16;4980869;28;19929;-82
2024/02/29 18:18:07;;;;;;;;;;;;;;;5.55;100.00;98752.41;4982514;28;20381;-88
2024/02/29 18:20:32;;;;;;;;;;;;;;;5.48;100.00;98753.56;4981339;28;19972;-87
2024/02/29 18:22:58;;;;;;;;;;;;;;;5.55;100.00;98752.41;4967250;28;19914;-86
2024/02/29 18:25:23;;;;;;;;;;;;;;;5.52;100.00;98751.66;4982717;28;19972;-83
2024/02/29 18:27:48;;;;;;;;;;;;;;;5.53;100.00;98748.13;4983585;28;20009;-81
2024/02/29 18:30:13;;;;;;;;;;;;;;;5.55;100.00;98749.78;4980874;28;19917;-88
2024/02/29 18:32:39;;;;;;;;;;;;;;;5.57;100.00;98733.97;4982895;28;19921;-81
2024/02/29 18:35:08;;;;;;;;;;;;;;;5.53;100.00;98746.34;4983545;28;20031;-81
2024/02/29 18:37:39;;;;;;;;;;;;;;;5.54;100.00;98745.44;4981678;28;20286;-86
2024/02/29 18:40:05;;;;;;;;;;;;;;;5.53;100.00;98746.34;4981346;28;19949;-87
2024/02/29 18:42:30;;;;;;;;;;;;;;;5.49;100.00;98736.88;4982747;28;19918;-85
2024/02/29 18:44:56;;;;;;;;;;;;;;;5.54;100.00;98734.94;4982326;28;19922;-82
2024/02/29 18:47:21;;;;;;;;;;;;;;;5.54;100.00;98729.66;4983189;28;19991;-84
2024/02/29 18:49:46;;;;;;;;;;;;;;;5.51;100.00;98727.16;4981665;28;19930;-85
2024/02/29 18:52:12;;;;;;;;;;;;;;;5.52;100.00;98733.25;4983116;28;20278;-80
2024/02/29 18:54:37;;;;;;;;;;;;;;;5.51;100.00;98736.81;4983038;28;19918;-80
2024/02/29 18:57:02;;;;;;;;;;;;;;;5.48;100.00;98732.53;4981107;28;20328;-80
2024/02/29 18:59:28;;;;;;;;;;;;;;;5.45;100.00;98733.50;4980875;28;19984;-80
2024/02/29 19:01:55;;;;;;;;;;;;;;;7.42;100.00;98724.28;4980551;28;19922;-81
2024/02/29 19:04:20;;;;;;;;;;;;;;;6.25;100.00;98729.47;4981942;28;19976;-82
2024/02/29 19:06:48;;;;;;;;;;;;;;;5.94;100.00;98733.34;4979436;28;20566;-80
2024/02/29 19:09:13;;;;;;;;;;;;;;;5.79;100.00;98740.06;4980430;28;20274;-79
2024/02/29 19:11:40;;;;;;;;;;;;;;;5.74;100.00;98738.53;4980979;28;19925;-79
2024/02/29 19:14:05;;;;;;;;;;;;;;;5.72;100.00;98740.38;4981613;28;19922;-85
2024/02/29 19:16:30;;;;;;;;;;;;;;;5.65;100.00;98734.50;4981547;28;19925;-80
2024/02/29 19:18:56;;;;;;;;;;;;;;;5.61;100.00;98728.50;4983014;28;19930;-83
2024/02/29 19:21:21;;;;;;;;;;;;;;;5.63;100.00;98731.94;4981871;28;19918;-84
2024/02/29 19:23:46;;;;;;;;;;;;;;;5.58;100.00;98723.38;4981091;28;19933;-83
2024/02/29 19:26:12;;;;;;;;;;;;;;;5.58;100.00;98727.78;4981794;28;20084;-89
2024/02/29 19:28:38;;;;;;;;;;;;;;;5.58;100.00;98719.88;4980802;28;19977;-80
2024/02/29 19:31:04;;;;;;;;;;;;;;;5.57;100.00;98721.66;4980569;28;19918;-82
2024/02/29 19:33:30;;;;;;;;;;;;;;;5.56;100.00;98714.69;4981532;28;19929;-83
2024/02/29 19:35:55;;;;;;;;;;;;;;;5.53;100.00;98714.81;4980445;28;19921;-82
2024/02/29 19:38:22;;;;;;;;;;;;;;;5.58;100.00;98712.84;4979242;28;20365;-82
2024/02/29 19:40:47;;;;;;;;;;;;;;;5.53;100.00;98703.44;4982359;28;20459;-83
2024/02/29 19:43:13;;;;;;;;;;;;;;;5.52;100.00;98701.72;4982571;28;19957;-84
2024/02/29 19:45:39;;;;;;;;;;;;;;;5.51;100.00;98708.75;4979169;28;20004;-83
2024/02/29 19:48:04;;;;;;;;;;;;;;;5.50;100.00;98709.66;4981860;28;19944;-88
2024/02/29 19:50:30;;;;;;;;;;;;;;;5.46;100.00;98708.09;4982821;28;19928;-78
2024/02/29 19:52:55;;;;;;;;;;;;;;;5.50;100.00;98708.81;4985014;28;20389;-87
2024/02/29 19:55:20;;;;;;;;;;;;;;;5.55;100.00;98707.75;4985858;28;19922;-79
2024/02/29 19:57:46;;;;;;;;;;;;;;;5.51;100.00;98711.41;4986502;28;20250;-82
2024/02/29 20:00:16;;;;;;;;;;;;;;;5.48;100.00;98706.25;4984391;28;20325;-83
2024/02/29 20:02:41;;;;;;;;;;;;;;;5.54;100.00;98700.75;4985505;28;19922;-84
2024/02/29 20:05:07;;;;;;;;;;;;;;;5.49;100.00;98701.84;4985880;28;20289;-79
2024/02/29 20:07:33;;;;;;;;;;;;;;;5.47;100.00;98699.28;4984486;28;19948;-83
2024/02/29 20:09:58;;;;;;;;;;;;;;;5.51;100.00;98706.13;4985817;28;19914;-82
2024/02/29 20:12:24;;;;;;;;;;;;;;;5.46;100.00;98702.84;4985748;28;19972;-88
2024/02/29 20:14:49;;;;;;;;;;;;;;;5.43;100.00;98701.19;4984199;28;19918;-78
2024/02/29 20:17:14;;;;;;;;;;;;;;;5.44;100.00;98700.28;4985582;28;20424;-84
2024/02/29 20:19:40;;;;;;;;;;;;;;;5.50;100.00;98693.91;4985231;28;19928;-78
2024/02/29 20:22:05;;;;;;;;;;;;;;;5.46;100.00;98694.97;4985310;28;20005;-83
2024/02/29 20:24:30;;;;;;;;;;;;;;;5.43;100.00;98688.03;4984606;28;19922;-83
2024/02/29 20:26:56;;;;;;;;;;;;;;;5.51;100.00;98693.00;4984723;28;19926;-80
2024/02/29 20:29:21;;;;;;;;;;;;;;;5.46;100.00;98700.22;4982999;28;19921;-80
2024/02/29 20:31:47;;;;;;;;;;;;;;;5.45;100.00;98691.47;4983840;28;19972;-82
2024/02/29 20:34:12;;;;;;;;;;;;;;;5.42;100.00;98691.56;4984454;28;19925;-79
2024/02/29 20:36:40;;;;;;;;;;;;;;;5.44;100.00;98696.78;4985003;28;19977;-78
2024/02/29 20:39:05;;;;;;;;;;;;;;;5.43;100.00;98692.44;4984665;28;20017;-78
2024/02/29 20:41:30;;;;;;;;;;;;;;;5.49;100.00;98686.09;4982557;28;20411;-81
2024/02/29 20:43:56;;;;;;;;;;;;;;;5.58;100.00;98691.81;4982317;28;19922;-88